aviador You're here:

LFMO Decoded Metar

ORANGE in FRANCE
Report Time2017-11-22 21:30:00
UTC Time2017-11-22 21:56:15
Flight Rules vfr VFR
Wind150° at 05 kt
W.Decomp.*RWY 14: 4.9 kt HW 0.9 kt RCW
W.Rank150° ranks 10
Current wind is below 150° avg. (6.5)
Visibility9999 m
Phenomena:N/A
Clouds:Few 033 Hf
Overcast 060 Hf
Expected CloudBase > 2,000 ft AGL from Temp-Dew spread
Ceiling6,000 ft
Temp13°C (ISA -2)
Dew Point08°C (72% RH)
AAT10.8°C
QNH1017 hPa
Density Alt-3 ft
Elevation180 ft
Report Wrong Elevation
Raw Report
LFMO 222130Z AUTO 15005KT 9999 FEW033 OVC060 13/08 Q1017 NOSIG=

Extra information for LFMO:More info

Metar Taf Metar & Taf Last 4 Metars F.Rules Stats Wind Profile Meteogram Temp Stats Airport Information Weather charts Add Link Nearby VenuesMetar ALERT Operation Metar Decoded Social comments